Terminal Aerodrome Forecast
Issued by NWS Grand Rapids, MI

Home | Current Version | Previous Version | Text Only | Print | Product List | Glossary On
Versions: 1 2 3 4 5 6 7 8 9 10 11 12 13 14 15 16 17 18 19 20 21 22 23 24 25
000
FTUS43 KGRR 011100
TAFGRR
TAF
KGRR 011140Z 0112/0212 07014KT 1SM -SN BR FEW011 OVC018
     FM011300 07014G20KT 1/2SM SN BLSN OVC008
     FM011600 06020G30KT 1/2SM SN BLSN VV004=

USA.gov is the U.S. government's official web portal to all federal, state and local government web resources and services.